sensor_id;sensor_type;location;lat;lon;timestamp;pressure;altitude;pressure_sealevel;temperature;humidity
80128;BME280;69440;52.118;5.408;2023-12-20T00:01:55;101701.44;;;6.10;100.00
80128;BME280;69440;52.118;5.408;2023-12-20T00:04:22;101695.16;;;6.11;100.00
80128;BME280;69440;52.118;5.408;2023-12-20T00:06:49;101693.41;;;6.10;100.00
80128;BME280;69440;52.118;5.408;2023-12-20T00:09:15;101690.00;;;6.05;100.00
80128;BME280;69440;52.118;5.408;2023-12-20T00:11:42;101683.84;;;6.03;100.00
80128;BME280;69440;52.118;5.408;2023-12-20T00:14:09;101675.00;;;6.01;100.00
80128;BME280;69440;52.118;5.408;2023-12-20T00:16:35;101680.34;;;6.01;100.00
80128;BME280;69440;52.118;5.408;2023-12-20T00:19:02;101675.03;;;6.00;100.00
80128;BME280;69440;52.118;5.408;2023-12-20T00:21:29;101677.84;;;5.95;100.00
80128;BME280;69440;52.118;5.408;2023-12-20T00:23:55;101683.09;;;5.98;100.00
80128;BME280;69440;52.118;5.408;2023-12-20T00:26:21;101678.75;;;5.94;100.00
80128;BME280;69440;52.118;5.408;2023-12-20T00:28:48;101669.00;;;5.93;100.00
80128;BME280;69440;52.118;5.408;2023-12-20T00:31:14;101671.75;;;5.90;100.00
80128;BME280;69440;52.118;5.408;2023-12-20T00:33:41;101683.34;;;5.87;100.00
80128;BME280;69440;52.118;5.408;2023-12-20T00:36:10;101679.84;;;5.85;100.00
80128;BME280;69440;52.118;5.408;2023-12-20T00:38:36;101684.25;;;5.86;100.00
80128;BME280;69440;52.118;5.408;2023-12-20T00:41:03;101684.25;;;5.86;100.00
80128;BME280;69440;52.118;5.408;2023-12-20T00:43:30;101682.47;;;5.87;100.00
80128;BME280;69440;52.118;5.408;2023-12-20T00:45:57;101675.38;;;5.86;100.00
80128;BME280;69440;52.118;5.408;2023-12-20T00:48:23;101670.03;;;5.86;100.00
80128;BME280;69440;52.118;5.408;2023-12-20T00:50:50;101679.00;;;5.83;100.00
80128;BME280;69440;52.118;5.408;2023-12-20T00:53:16;101673.66;;;5.83;100.00
80128;BME280;69440;52.118;5.408;2023-12-20T00:55:42;101671.94;;;5.81;100.00
80128;BME280;69440;52.118;5.408;2023-12-20T00:58:10;101672.13;;;5.73;100.00
80128;BME280;69440;52.118;5.408;2023-12-20T01:00:37;101681.06;;;5.72;100.00
80128;BME280;69440;52.118;5.408;2023-12-20T01:03:06;101689.16;;;5.68;100.00
80128;BME280;69440;52.118;5.408;2023-12-20T01:05:33;101682.13;;;5.65;100.00
80128;BME280;69440;52.118;5.408;2023-12-20T01:07:59;101679.50;;;5.64;100.00
80128;BME280;69440;52.118;5.408;2023-12-20T01:10:26;101671.53;;;5.62;100.00
80128;BME280;69440;52.118;5.408;2023-12-20T01:12:55;101672.34;;;5.66;100.00
80128;BME280;69440;52.118;5.408;2023-12-20T01:15:21;101665.13;;;5.69;100.00
80128;BME280;69440;52.118;5.408;2023-12-20T01:17:48;101655.47;;;5.65;100.00
80128;BME280;69440;52.118;5.408;2023-12-20T01:20:15;101657.25;;;5.65;100.00
80128;BME280;69440;52.118;5.408;2023-12-20T01:22:43;101657.25;;;5.65;100.00
80128;BME280;69440;52.118;5.408;2023-12-20T01:25:12;101676.88;;;5.62;100.00
80128;BME280;69440;52.118;5.408;2023-12-20T01:27:38;101676.94;;;5.59;100.00
80128;BME280;69440;52.118;5.408;2023-12-20T01:30:05;101689.56;;;5.52;100.00
80128;BME280;69440;52.118;5.408;2023-12-20T01:32:32;101685.06;;;5.54;100.00
80128;BME280;69440;52.118;5.408;2023-12-20T01:34:59;101684.25;;;5.51;100.00
80128;BME280;69440;52.118;5.408;2023-12-20T01:37:28;101692.03;;;5.60;100.00
80128;BME280;69440;52.118;5.408;2023-12-20T01:39:55;101684.88;;;5.62;100.00
80128;BME280;69440;52.118;5.408;2023-12-20T01:42:22;101688.38;;;5.64;100.00
80128;BME280;69440;52.118;5.408;2023-12-20T01:44:49;101682.22;;;5.62;100.00
80128;BME280;69440;52.118;5.408;2023-12-20T01:47:16;101683.13;;;5.61;100.00
80128;BME280;69440;52.118;5.408;2023-12-20T01:49:43;101668.94;;;5.59;100.00
80128;BME280;69440;52.118;5.408;2023-12-20T01:52:10;101679.59;;;5.60;100.00
80128;BME280;69440;52.118;5.408;2023-12-20T01:54:38;101675.03;;;5.64;100.00
80128;BME280;69440;52.118;5.408;2023-12-20T01:57:06;101669.53;;;5.70;100.00
80128;BME280;69440;52.118;5.408;2023-12-20T01:59:34;101680.22;;;5.70;100.00
80128;BME280;69440;52.118;5.408;2023-12-20T02:02:03;101681.13;;;5.69;100.00
80128;BME280;69440;52.118;5.408;2023-12-20T02:04:30;101665.09;;;5.71;100.00
80128;BME280;69440;52.118;5.408;2023-12-20T02:06:57;101670.47;;;5.69;100.00
80128;BME280;69440;52.118;5.408;2023-12-20T02:09:25;101671.25;;;5.73;100.00
80128;BME280;69440;52.118;5.408;2023-12-20T02:11:52;101665.97;;;5.71;100.00
80128;BME280;69440;52.118;5.408;2023-12-20T02:14:18;101666.03;;;5.68;100.00
80128;BME280;69440;52.118;5.408;2023-12-20T02:16:45;101669.59;;;5.69;100.00
80128;BME280;69440;52.118;5.408;2023-12-20T02:19:14;101660.59;;;5.73;100.00
80128;BME280;69440;52.118;5.408;2023-12-20T02:21:41;101666.75;;;5.75;100.00
80128;BME280;69440;52.118;5.408;2023-12-20T02:24:07;101656.78;;;5.83;100.00
80128;BME280;69440;52.118;5.408;2023-12-20T02:26:34;101653.22;;;5.84;100.00
80128;BME280;69440;52.118;5.408;2023-12-20T02:29:01;101657.72;;;5.82;100.00
80128;BME280;69440;52.118;5.408;2023-12-20T02:31:28;101666.47;;;5.87;100.00
80128;BME280;69440;52.118;5.408;2023-12-20T02:33:54;101652.25;;;5.86;100.00
80128;BME280;69440;52.118;5.408;2023-12-20T02:36:21;101649.66;;;5.83;100.00
80128;BME280;69440;52.118;5.408;2023-12-20T02:38:47;101656.66;;;5.87;100.00
80128;BME280;69440;52.118;5.408;2023-12-20T02:41:14;101663.88;;;5.84;100.00
80128;BME280;69440;52.118;5.408;2023-12-20T02:43:43;101656.78;;;5.83;100.00
80128;BME280;69440;52.118;5.408;2023-12-20T02:46:10;101654.13;;;5.83;100.00
80128;BME280;69440;52.118;5.408;2023-12-20T02:48:37;101647.88;;;5.84;100.00
80128;BME280;69440;52.118;5.408;2023-12-20T02:51:04;101644.28;;;5.85;100.00
80128;BME280;69440;52.118;5.408;2023-12-20T02:53:30;101641.50;;;5.91;100.00
80128;BME280;69440;52.118;5.408;2023-12-20T02:55:57;101631.72;;;5.90;100.00
80128;BME280;69440;52.118;5.408;2023-12-20T02:58:23;101633.53;;;5.88;100.00
80128;BME280;69440;52.118;5.408;2023-12-20T03:00:50;101630.00;;;5.87;100.00
80128;BME280;69440;52.118;5.408;2023-12-20T03:03:17;101629.94;;;5.90;100.00
80128;BME280;69440;52.118;5.408;2023-12-20T03:05:43;101628.91;;;5.96;100.00
80128;BME280;69440;52.118;5.408;2023-12-20T03:08:11;101631.69;;;5.91;100.00
80128;BME280;69440;52.118;5.408;2023-12-20T03:10:37;101630.72;;;5.94;100.00
80128;BME280;69440;52.118;5.408;2023-12-20T03:13:04;101629.81;;;5.95;100.00
80128;BME280;69440;52.118;5.408;2023-12-20T03:15:30;101627.06;;;5.98;100.00
80128;BME280;69440;52.118;5.408;2023-12-20T03:17:57;101625.25;;;5.99;100.00
80128;BME280;69440;52.118;5.408;2023-12-20T03:20:25;101626.13;;;5.99;100.00
80128;BME280;69440;52.118;5.408;2023-12-20T03:22:54;101626.09;;;6.01;100.00
80128;BME280;69440;52.118;5.408;2023-12-20T03:25:21;101616.25;;;6.03;100.00
80128;BME280;69440;52.118;5.408;2023-12-20T03:27:47;101616.34;;;6.00;100.00
80128;BME280;69440;52.118;5.408;2023-12-20T03:30:14;101608.44;;;5.97;100.00
80128;BME280;69440;52.118;5.408;2023-12-20T03:32:41;101605.81;;;5.95;100.00
80128;BME280;69440;52.118;5.408;2023-12-20T03:35:07;101612.94;;;5.95;100.00
80128;BME280;69440;52.118;5.408;2023-12-20T03:37:34;101613.84;;;5.94;100.00
80128;BME280;69440;52.118;5.408;2023-12-20T03:40:01;101610.31;;;5.93;100.00
80128;BME280;69440;52.118;5.408;2023-12-20T03:42:27;101616.44;;;5.97;100.00
80128;BME280;69440;52.118;5.408;2023-12-20T03:44:54;101614.59;;;5.99;100.00
80128;BME280;69440;52.118;5.408;2023-12-20T03:47:20;101614.56;;;6.00;100.00
80128;BME280;69440;52.118;5.408;2023-12-20T03:49:47;101614.47;;;6.03;100.00
80128;BME280;69440;52.118;5.408;2023-12-20T03:52:13;101625.19;;;6.02;100.00
80128;BME280;69440;52.118;5.408;2023-12-20T03:54:40;101616.38;;;5.98;100.00
80128;BME280;69440;52.118;5.408;2023-12-20T03:57:08;101612.94;;;5.95;100.00
80128;BME280;69440;52.118;5.408;2023-12-20T03:59:36;101605.84;;;5.94;100.00
80128;BME280;69440;52.118;5.408;2023-12-20T04:02:04;101608.56;;;5.92;100.00
80128;BME280;69440;52.118;5.408;2023-12-20T04:04:30;101611.22;;;5.92;100.00
80128;BME280;69440;52.118;5.408;2023-12-20T04:06:57;101613.81;;;5.95;100.00
80128;BME280;69440;52.118;5.408;2023-12-20T04:09:24;101615.56;;;5.96;100.00
80128;BME280;69440;52.118;5.408;2023-12-20T04:11:50;101610.13;;;5.99;100.00
80128;BME280;69440;52.118;5.408;2023-12-20T04:14:17;101601.25;;;5.99;100.00
80128;BME280;69440;52.118;5.408;2023-12-20T04:16:43;101594.94;;;6.01;100.00
80128;BME280;69440;52.118;5.408;2023-12-20T04:19:13;101601.06;;;6.05;100.00
80128;BME280;69440;52.118;5.408;2023-12-20T04:21:39;101595.75;;;6.05;100.00
80128;BME280;69440;52.118;5.408;2023-12-20T04:24:06;101594.91;;;6.03;100.00
80128;BME280;69440;52.118;5.408;2023-12-20T04:26:33;101598.44;;;6.03;100.00
80128;BME280;69440;52.118;5.408;2023-12-20T04:28:59;101589.41;;;6.09;100.00
80128;BME280;69440;52.118;5.408;2023-12-20T04:31:26;101598.22;;;6.12;100.00
80128;BME280;69440;52.118;5.408;2023-12-20T04:33:52;101603.41;;;6.17;100.00
80128;BME280;69440;52.118;5.408;2023-12-20T04:36:19;101609.63;;;6.17;100.00
80128;BME280;69440;52.118;5.408;2023-12-20T04:38:45;101603.28;;;6.21;100.00
80128;BME280;69440;52.118;5.408;2023-12-20T04:41:12;101606.78;;;6.23;100.00
80128;BME280;69440;52.118;5.408;2023-12-20T04:43:42;101593.34;;;6.27;100.00
80128;BME280;69440;52.118;5.408;2023-12-20T04:46:08;101596.94;;;6.26;100.00
80128;BME280;69440;52.118;5.408;2023-12-20T04:48:35;101599.56;;;6.27;100.00
80128;BME280;69440;52.118;5.408;2023-12-20T04:51:01;101595.00;;;6.31;100.00
80128;BME280;69440;52.118;5.408;2023-12-20T04:53:28;101597.56;;;6.34;100.00
80128;BME280;69440;52.118;5.408;2023-12-20T04:55:54;101588.66;;;6.35;100.00
80128;BME280;69440;52.118;5.408;2023-12-20T04:58:21;101590.31;;;6.39;100.00
80128;BME280;69440;52.118;5.408;2023-12-20T05:00:47;101588.41;;;6.42;100.00
80128;BME280;69440;52.118;5.408;2023-12-20T05:03:14;101584.81;;;6.45;100.00
80128;BME280;69440;52.118;5.408;2023-12-20T05:05:41;101575.06;;;6.44;100.00
80128;BME280;69440;52.118;5.408;2023-12-20T05:08:07;101577.63;;;6.47;100.00
80128;BME280;69440;52.118;5.408;2023-12-20T05:10:34;101573.16;;;6.47;100.00
80128;BME280;69440;52.118;5.408;2023-12-20T05:13:02;101591.81;;;6.49;100.00
80128;BME280;69440;52.118;5.408;2023-12-20T05:15:29;101581.13;;;6.49;100.00
80128;BME280;69440;52.118;5.408;2023-12-20T05:17:56;101597.09;;;6.50;100.00
80128;BME280;69440;52.118;5.408;2023-12-20T05:20:25;101586.38;;;6.52;100.00
80128;BME280;69440;52.118;5.408;2023-12-20T05:22:52;101582.81;;;6.51;100.00
80128;BME280;69440;52.118;5.408;2023-12-20T05:25:18;101588.16;;;6.51;100.00
80128;BME280;69440;52.118;5.408;2023-12-20T05:27:45;101581.91;;;6.52;100.00
80128;BME280;69440;52.118;5.408;2023-12-20T05:30:12;101579.13;;;6.56;100.00
80128;BME280;69440;52.118;5.408;2023-12-20T05:32:39;101586.31;;;6.53;100.00
80128;BME280;69440;52.118;5.408;2023-12-20T05:35:05;101586.31;;;6.53;100.00
80128;BME280;69440;52.118;5.408;2023-12-20T05:37:32;101591.66;;;6.53;100.00
80128;BME280;69440;52.118;5.408;2023-12-20T05:39:58;101591.72;;;6.52;100.00
80128;BME280;69440;52.118;5.408;2023-12-20T05:42:25;101587.25;;;6.52;100.00
80128;BME280;69440;52.118;5.408;2023-12-20T05:44:51;101590.72;;;6.54;100.00
80128;BME280;69440;52.118;5.408;2023-12-20T05:47:21;101596.03;;;6.56;100.00
80128;BME280;69440;52.118;5.408;2023-12-20T05:49:47;101580.00;;;6.56;100.00
80128;BME280;69440;52.118;5.408;2023-12-20T05:52:14;101583.59;;;6.55;100.00
80128;BME280;69440;52.118;5.408;2023-12-20T05:54:41;101587.09;;;6.57;100.00
80128;BME280;69440;52.118;5.408;2023-12-20T05:57:07;101586.22;;;6.57;100.00
80128;BME280;69440;52.118;5.408;2023-12-20T05:59:34;101580.84;;;6.58;100.00
80128;BME280;69440;52.118;5.408;2023-12-20T06:02:00;101587.97;;;6.58;100.00
80128;BME280;69440;52.118;5.408;2023-12-20T06:04:27;101581.66;;;6.60;100.00
80128;BME280;69440;52.118;5.408;2023-12-20T06:06:54;101579.00;;;6.60;100.00
80128;BME280;69440;52.118;5.408;2023-12-20T06:09:20;101587.00;;;6.60;100.00
80128;BME280;69440;52.118;5.408;2023-12-20T06:11:47;101586.94;;;6.62;100.00
80128;BME280;69440;52.118;5.408;2023-12-20T06:14:13;101577.19;;;6.61;100.00
80128;BME280;69440;52.118;5.408;2023-12-20T06:16:41;101569.09;;;6.64;100.00
80128;BME280;69440;52.118;5.408;2023-12-20T06:19:07;101579.66;;;6.67;100.00
80128;BME280;69440;52.118;5.408;2023-12-20T06:21:34;101585.84;;;6.69;100.00
80128;BME280;69440;52.118;5.408;2023-12-20T06:24:00;101576.91;;;6.70;100.00
80128;BME280;69440;52.118;5.408;2023-12-20T06:26:27;101572.44;;;6.70;100.00
80128;BME280;69440;52.118;5.408;2023-12-20T06:28:53;101580.44;;;6.70;100.00
80128;BME280;69440;52.118;5.408;2023-12-20T06:31:20;101574.19;;;6.71;100.00
80128;BME280;69440;52.118;5.408;2023-12-20T06:33:46;101573.25;;;6.72;100.00
80128;BME280;69440;52.118;5.408;2023-12-20T06:36:13;101575.00;;;6.73;100.00
80128;BME280;69440;52.118;5.408;2023-12-20T06:38:40;101572.34;;;6.73;100.00
80128;BME280;69440;52.118;5.408;2023-12-20T06:41:08;101569.66;;;6.75;100.00
80128;BME280;69440;52.118;5.408;2023-12-20T06:43:34;101588.34;;;6.75;100.00
80128;BME280;69440;52.118;5.408;2023-12-20T06:46:14;101578.53;;;6.75;100.00
80128;BME280;69440;52.118;5.408;2023-12-20T06:48:41;101573.19;;;6.75;100.00
80128;BME280;69440;52.118;5.408;2023-12-20T06:51:12;101569.59;;;6.76;100.00
80128;BME280;69440;52.118;5.408;2023-12-20T06:53:42;101571.38;;;6.76;100.00
80128;BME280;69440;52.118;5.408;2023-12-20T06:56:10;101563.31;;;6.77;100.00
80128;BME280;69440;52.118;5.408;2023-12-20T06:58:41;101560.69;;;6.76;100.00
80128;BME280;69440;52.118;5.408;2023-12-20T07:01:12;101565.13;;;6.77;100.00
80128;BME280;69440;52.118;5.408;2023-12-20T07:03:38;101558.91;;;6.76;100.00
80128;BME280;69440;52.118;5.408;2023-12-20T07:06:06;101556.28;;;6.75;100.00
80128;BME280;69440;52.118;5.408;2023-12-20T07:08:33;101565.06;;;6.78;100.00
80128;BME280;69440;52.118;5.408;2023-12-20T07:10:59;101558.81;;;6.79;100.00
80128;BME280;69440;52.118;5.408;2023-12-20T07:13:26;101559.63;;;6.81;100.00
80128;BME280;69440;52.118;5.408;2023-12-20T07:15:52;101564.91;;;6.83;100.00
80128;BME280;69440;52.118;5.408;2023-12-20T07:18:19;101558.72;;;6.82;100.00
80128;BME280;69440;52.118;5.408;2023-12-20T07:20:46;101559.53;;;6.84;100.00
80128;BME280;69440;52.118;5.408;2023-12-20T07:23:12;101554.19;;;6.84;100.00
80128;BME280;69440;52.118;5.408;2023-12-20T07:25:38;101554.19;;;6.84;100.00
80128;BME280;69440;52.118;5.408;2023-12-20T07:28:05;101550.59;;;6.85;100.00
80128;BME280;69440;52.118;5.408;2023-12-20T07:30:32;101555.88;;;6.87;100.00
80128;BME280;69440;52.118;5.408;2023-12-20T07:32:58;101545.16;;;6.89;100.00
80128;BME280;69440;52.118;5.408;2023-12-20T07:35:25;101547.75;;;6.90;100.00
80128;BME280;69440;52.118;5.408;2023-12-20T07:37:52;101546.03;;;6.89;100.00
80128;BME280;69440;52.118;5.408;2023-12-20T07:40:18;101529.94;;;6.91;100.00
80128;BME280;69440;52.118;5.408;2023-12-20T07:42:45;101537.84;;;6.94;100.00
80128;BME280;69440;52.118;5.408;2023-12-20T07:45:11;101545.88;;;6.94;100.00
80128;BME280;69440;52.118;5.408;2023-12-20T07:47:38;101553.88;;;6.94;100.00
80128;BME280;69440;52.118;5.408;2023-12-20T07:50:05;101552.03;;;6.96;100.00
80128;BME280;69440;52.118;5.408;2023-12-20T07:52:32;101565.28;;;6.99;100.00
80128;BME280;69440;52.118;5.408;2023-12-20T07:54:58;101567.97;;;6.99;100.00
80128;BME280;69440;52.118;5.408;2023-12-20T07:57:25;101566.09;;;7.01;100.00
80128;BME280;69440;52.118;5.408;2023-12-20T07:59:54;101561.63;;;7.01;100.00
80128;BME280;69440;52.118;5.408;2023-12-20T08:02:21;101573.16;;;7.03;100.00
80128;BME280;69440;52.118;5.408;2023-12-20T08:04:47;101577.63;;;7.03;100.00
80128;BME280;69440;52.118;5.408;2023-12-20T08:07:14;101577.59;;;7.04;100.00
80128;BME280;69440;52.118;5.408;2023-12-20T08:09:41;101576.69;;;7.05;100.00
80128;BME280;69440;52.118;5.408;2023-12-20T08:12:07;101586.44;;;7.06;100.00
80128;BME280;69440;52.118;5.408;2023-12-20T08:14:34;101583.72;;;7.08;100.00
80128;BME280;69440;52.118;5.408;2023-12-20T08:17:00;101586.41;;;7.08;100.00
80128;BME280;69440;52.118;5.408;2023-12-20T08:19:27;101586.34;;;7.09;100.00
80128;BME280;69440;52.118;5.408;2023-12-20T08:21:53;101566.72;;;7.10;100.00
80128;BME280;69440;52.118;5.408;2023-12-20T08:24:20;101581.81;;;7.11;100.00
80128;BME280;69440;52.118;5.408;2023-12-20T08:26:46;101565.78;;;7.11;100.00
80128;BME280;69440;52.118;5.408;2023-12-20T08:29:13;101568.41;;;7.13;100.00
80128;BME280;69440;52.118;5.408;2023-12-20T08:31:40;101559.47;;;7.14;100.00
80128;BME280;69440;52.118;5.408;2023-12-20T08:34:07;101563.81;;;7.16;100.00
80128;BME280;69440;52.118;5.408;2023-12-20T08:36:34;101573.59;;;7.18;100.00
80128;BME280;69440;52.118;5.408;2023-12-20T08:39:01;101561.09;;;7.18;100.00
80128;BME280;69440;52.118;5.408;2023-12-20T08:41:29;101562.91;;;7.18;100.00
80128;BME280;69440;52.118;5.408;2023-12-20T08:43:56;101559.34;;;7.17;100.00
80128;BME280;69440;52.118;5.408;2023-12-20T08:46:22;101556.63;;;7.19;100.00
80128;BME280;69440;52.118;5.408;2023-12-20T08:48:49;101557.44;;;7.21;100.00
80128;BME280;69440;52.118;5.408;2023-12-20T08:51:16;101560.06;;;7.22;100.00
80128;BME280;69440;52.118;5.408;2023-12-20T08:53:43;101564.50;;;7.23;100.00
80128;BME280;69440;52.118;5.408;2023-12-20T08:56:11;101558.28;;;7.23;100.00
80128;BME280;69440;52.118;5.408;2023-12-20T08:58:38;101554.72;;;7.22;100.00
80128;BME280;69440;52.118;5.408;2023-12-20T09:01:04;101557.41;;;7.22;100.00
80128;BME280;69440;52.118;5.408;2023-12-20T09:03:31;101571.75;;;7.20;100.00
80128;BME280;69440;52.118;5.408;2023-12-20T09:05:57;101553.97;;;7.19;100.00
80128;BME280;69440;52.118;5.408;2023-12-20T09:08:24;101556.69;;;7.17;100.00
80128;BME280;69440;52.118;5.408;2023-12-20T09:10:50;101558.47;;;7.16;100.00
80128;BME280;69440;52.118;5.408;2023-12-20T09:13:17;101548.66;;;7.17;100.00
80128;BME280;69440;52.118;5.408;2023-12-20T09:15:43;101552.31;;;7.14;100.00
80128;BME280;69440;52.118;5.408;2023-12-20T09:18:10;101566.56;;;7.15;100.00
80128;BME280;69440;52.118;5.408;2023-12-20T09:20:37;101552.31;;;7.14;100.00
80128;BME280;69440;52.118;5.408;2023-12-20T09:23:07;101546.91;;;7.16;100.00
80128;BME280;69440;52.118;5.408;2023-12-20T09:25:34;101559.34;;;7.17;100.00
80128;BME280;69440;52.118;5.408;2023-12-20T09:28:00;101547.63;;;7.21;100.00
80128;BME280;69440;52.118;5.408;2023-12-20T09:30:27;101558.22;;;7.24;100.00
80128;BME280;69440;52.118;5.408;2023-12-20T09:32:54;101544.69;;;7.29;100.00
80128;BME280;69440;52.118;5.408;2023-12-20T09:35:21;101556.16;;;7.32;100.00
80128;BME280;69440;52.118;5.408;2023-12-20T09:37:49;101552.47;;;7.36;100.00
80128;BME280;69440;52.118;5.408;2023-12-20T09:40:18;101551.53;;;7.37;100.00
80128;BME280;69440;52.118;5.408;2023-12-20T09:42:57;101559.34;;;7.43;100.00
80128;BME280;69440;52.118;5.408;2023-12-20T09:45:24;101548.53;;;7.46;100.00
80128;BME280;69440;52.118;5.408;2023-12-20T09:47:53;101557.38;;;7.48;100.00
80128;BME280;69440;52.118;5.408;2023-12-20T09:50:20;101559.91;;;7.53;100.00
80128;BME280;69440;52.118;5.408;2023-12-20T09:52:51;101568.69;;;7.57;100.00
80128;BME280;69440;52.118;5.408;2023-12-20T09:55:19;101567.81;;;7.56;100.00
80128;BME280;69440;52.118;5.408;2023-12-20T09:57:47;101575.66;;;7.61;100.00
80128;BME280;69440;52.118;5.408;2023-12-20T10:00:15;101555.09;;;7.63;100.00
80128;BME280;69440;52.118;5.408;2023-12-20T10:02:49;101563.84;;;7.68;100.00
80128;BME280;69440;52.118;5.408;2023-12-20T10:05:17;101568.09;;;7.73;100.00
80128;BME280;69440;52.118;5.408;2023-12-20T10:07:47;101567.06;;;7.77;100.00
80128;BME280;69440;52.118;5.408;2023-12-20T10:10:14;101560.72;;;7.80;100.00
80128;BME280;69440;52.118;5.408;2023-12-20T10:13:04;101576.72;;;7.82;100.00
80128;BME280;69440;52.118;5.408;2023-12-20T10:15:35;101572.31;;;7.81;100.00
80128;BME280;69440;52.118;5.408;2023-12-20T10:18:02;101573.22;;;7.79;100.00
80128;BME280;69440;52.118;5.408;2023-12-20T10:20:30;101574.97;;;7.81;100.00
80128;BME280;69440;52.118;5.408;2023-12-20T10:22:57;101574.97;;;7.81;100.00
80128;BME280;69440;52.118;5.408;2023-12-20T10:25:25;101568.69;;;7.82;100.00
80128;BME280;69440;52.118;5.408;2023-12-20T10:28:13;101560.63;;;7.83;100.00
80128;BME280;69440;52.118;5.408;2023-12-20T10:30:41;101570.44;;;7.83;100.00
80128;BME280;69440;52.118;5.408;2023-12-20T10:33:09;101564.97;;;7.86;100.00
80128;BME280;69440;52.118;5.408;2023-12-20T10:35:37;101555.97;;;7.88;100.00
80128;BME280;69440;52.118;5.408;2023-12-20T10:38:05;101559.47;;;7.90;100.00
80128;BME280;69440;52.118;5.408;2023-12-20T10:40:34;101549.56;;;7.92;100.00
80128;BME280;69440;52.118;5.408;2023-12-20T10:43:03;101555.75;;;7.94;100.00
80128;BME280;69440;52.118;5.408;2023-12-20T10:45:30;101553.06;;;7.94;100.00
80128;BME280;69440;52.118;5.408;2023-12-20T10:47:57;101549.44;;;7.97;100.00
80128;BME280;69440;52.118;5.408;2023-12-20T10:50:27;101550.31;;;7.97;100.00
80128;BME280;69440;52.118;5.408;2023-12-20T10:52:55;101544.94;;;7.97;100.00
80128;BME280;69440;52.118;5.408;2023-12-20T10:55:25;101538.59;;;8.00;100.00
80128;BME280;69440;52.118;5.408;2023-12-20T10:58:00;101535.47;;;8.12;100.00
80128;BME280;69440;52.118;5.408;2023-12-20T11:00:29;101538.84;;;8.17;100.00
80128;BME280;69440;52.118;5.408;2023-12-20T11:03:00;101537.97;;;8.17;100.00
80128;BME280;69440;52.118;5.408;2023-12-20T11:08:20;101525.25;;;8.22;100.00
80128;BME280;69440;52.118;5.408;2023-12-20T11:11:03;101533.03;;;8.29;100.00
80128;BME280;69440;52.118;5.408;2023-12-20T11:13:40;101526.28;;;8.43;100.00
80128;BME280;69440;52.118;5.408;2023-12-20T11:16:08;101525.63;;;8.59;100.00
80128;BME280;69440;52.118;5.408;2023-12-20T11:18:35;101515.59;;;8.64;100.00
80128;BME280;69440;52.118;5.408;2023-12-20T11:21:04;101528.38;;;8.80;100.00
80128;BME280;69440;52.118;5.408;2023-12-20T11:23:34;101519.53;;;8.78;100.00
80128;BME280;69440;52.118;5.408;2023-12-20T11:26:02;101496.78;;;8.66;100.00
80128;BME280;69440;52.118;5.408;2023-12-20T11:28:29;101501.75;;;8.53;100.00
80128;BME280;69440;52.118;5.408;2023-12-20T11:30:57;101503.75;;;8.48;100.00
80128;BME280;69440;52.118;5.408;2023-12-20T11:33:30;101509.78;;;8.53;100.00
80128;BME280;69440;52.118;5.408;2023-12-20T11:35:57;101497.66;;;8.66;100.00
80128;BME280;69440;52.118;5.408;2023-12-20T11:38:26;101506.56;;;8.67;100.00
80128;BME280;69440;52.118;5.408;2023-12-20T11:40:54;101499.53;;;8.64;100.00
80128;BME280;69440;52.118;5.408;2023-12-20T11:43:39;101493.38;;;8.62;100.00
80128;BME280;69440;52.118;5.408;2023-12-20T11:46:06;101498.84;;;8.59;100.00
80128;BME280;69440;52.118;5.408;2023-12-20T11:48:40;101489.94;;;8.59;100.00
80128;BME280;69440;52.118;5.408;2023-12-20T11:51:13;101486.31;;;8.60;100.00
80128;BME280;69440;52.118;5.408;2023-12-20T11:53:40;101474.59;;;8.62;100.00
80128;BME280;69440;52.118;5.408;2023-12-20T11:56:08;101476.28;;;8.65;100.00
80128;BME280;69440;52.118;5.408;2023-12-20T11:58:36;101480.66;;;8.67;100.00
80128;BME280;69440;52.118;5.408;2023-12-20T12:01:03;101465.25;;;8.73;100.00
80128;BME280;69440;52.118;5.408;2023-12-20T12:03:30;101475.72;;;8.79;100.00
80128;BME280;69440;52.118;5.408;2023-12-20T12:05:57;101475.84;;;8.76;100.00
80128;BME280;69440;52.118;5.408;2023-12-20T12:08:24;101479.66;;;8.70;100.00
80128;BME280;69440;52.118;5.408;2023-12-20T12:10:51;101471.00;;;8.63;100.00
80128;BME280;69440;52.118;5.408;2023-12-20T12:13:18;101480.03;;;8.61;100.00
80128;BME280;69440;52.118;5.408;2023-12-20T12:15:44;101480.03;;;8.61;100.00
80128;BME280;69440;52.118;5.408;2023-12-20T12:18:15;101479.97;;;8.62;100.00
80128;BME280;69440;52.118;5.408;2023-12-20T12:20:42;101474.66;;;8.61;100.00
80128;BME280;69440;52.118;5.408;2023-12-20T12:23:09;101487.13;;;8.62;100.00
80128;BME280;69440;52.118;5.408;2023-12-20T12:25:36;101472.59;;;8.67;100.00
80128;BME280;69440;52.118;5.408;2023-12-20T12:28:08;101480.53;;;8.70;100.00
80128;BME280;69440;52.118;5.408;2023-12-20T12:30:35;101466.25;;;8.70;100.00
80128;BME280;69440;52.118;5.408;2023-12-20T12:33:11;101465.44;;;8.68;100.00
80128;BME280;69440;52.118;5.408;2023-12-20T12:35:40;101453.03;;;8.65;100.00
80128;BME280;69440;52.118;5.408;2023-12-20T12:38:07;101447.63;;;8.67;100.00
80128;BME280;69440;52.118;5.408;2023-12-20T12:40:35;101453.84;;;8.67;100.00
80128;BME280;69440;52.118;5.408;2023-12-20T12:43:02;101447.63;;;8.67;100.00
80128;BME280;69440;52.118;5.408;2023-12-20T12:45:29;101443.13;;;8.67;100.00
80128;BME280;69440;52.118;5.408;2023-12-20T12:47:55;101446.69;;;8.68;100.00
80128;BME280;69440;52.118;5.408;2023-12-20T12:50:22;101438.72;;;8.66;100.00
80128;BME280;69440;52.118;5.408;2023-12-20T12:52:49;101441.38;;;8.66;100.00
80128;BME280;69440;52.118;5.408;2023-12-20T12:55:15;101438.66;;;8.68;100.00